CW5318 Canovanas PR US current weather conditions

sailwx.info

Wind from 137

Air temperature 24.4° C
Dewpoint 24.4° C

Last reported at 2019-Dec-11 02:00 UTC.
Time now 2019-Dec-11 02:53 UTC

Location: N 18°00' W 066°00'.
View on Google Maps.

See reports from other nearby stations

  
Tides and Currents Weather Stations Pressure Air Temp Water Temp Dewpoint Dewpoint Depression Visibility Wind Speed Wind Dir Waves Ship Positions
date/time (UTC)wind fromknots sea level pressurealtimeterstation pressurevisibilityair tempwater tempwave heightnotes
2019-Dec-11 02:00 137 24.4
2019-Dec-11 01:55 138 24.4
2019-Dec-11 01:50 137 24.4
2019-Dec-11 01:45 137 24.4
2019-Dec-11 01:40 137 24.4
2019-Dec-11 01:35 137 24.4
2019-Dec-11 01:30 182 19.4
2019-Dec-11 01:25 182 19.4
2019-Dec-11 01:20 137 23.9
2019-Dec-11 01:15 137 23.9
2019-Dec-11 01:10 137 0 23.9
2019-Dec-11 01:05 137 0 23.9
2019-Dec-11 00:55 137 24.4
2019-Dec-11 00:50 137 24.4
2019-Dec-11 00:45 137 24.4
2019-Dec-11 00:40 137 24.4
2019-Dec-11 00:35 137 24.4
2019-Dec-11 00:30 137 24.4
2019-Dec-11 00:25 137 24.4
2019-Dec-11 00:20 137 24.4
2019-Dec-11 00:15 137 24.4
2019-Dec-11 00:10 137 24.4
2019-Dec-11 00:05 137 24.4
2019-Dec-11 00:00 137 24.4
2019-Dec-10 23:55 182 19.4
2019-Dec-10 23:50 182 19.4
2019-Dec-10 23:45 182 19.4
2019-Dec-10 23:40 182 19.4
2019-Dec-10 23:35 182 19.4
2019-Dec-10 23:30 182 19.4
2019-Dec-10 23:25 182 19.4
2019-Dec-10 23:20 182 19.4
2019-Dec-10 23:15 182 19.4
2019-Dec-10 23:10 182 19.4
2019-Dec-10 23:05 182 19.4
2019-Dec-10 23:00 182 19.4
2019-Dec-10 22:55 182 19.4
2019-Dec-10 22:50 182 19.4
2019-Dec-10 22:45 182 19.4
2019-Dec-10 22:40 182 19.4
2019-Dec-10 22:35 182 19.4
2019-Dec-10 22:25 182 19.4
2019-Dec-10 22:20 182 19.4
2019-Dec-10 22:15 182 19.4
2019-Dec-10 22:10 182 19.4
2019-Dec-10 22:05 119 23.9
2019-Dec-10 22:00 119 0 23.9
2019-Dec-10 21:55 119 2 24.4
2019-Dec-10 21:50 118 1 25.0
2019-Dec-10 21:45 130 25.6
2019-Dec-10 21:40 130 25.6
2019-Dec-10 21:35 130 25.6
2019-Dec-10 21:30 130 0 25.6
2019-Dec-10 21:25 130 0 25.6
2019-Dec-10 21:20 129 0 25.6
2019-Dec-10 21:15 128 1 26.1
2019-Dec-10 21:10 128 1 26.1
2019-Dec-10 21:05 127 1 26.1
2019-Dec-10 21:00 130 1 26.7
2019-Dec-10 20:55 161 0 26.7
2019-Dec-10 20:50 182 18.9
2019-Dec-10 20:45 182 18.9
2019-Dec-10 20:40 182 18.9
2019-Dec-10 20:35 182 18.9
2019-Dec-10 20:30 182 18.9
2019-Dec-10 20:25 182 18.9
2019-Dec-10 20:20 182 18.9
2019-Dec-10 20:15 182 18.9
2019-Dec-10 20:10 182 18.9
2019-Dec-10 20:05 182 18.9
2019-Dec-10 20:00 182 18.9
2019-Dec-10 19:55 182 18.9
2019-Dec-10 19:50 182 18.9
2019-Dec-10 19:45 182 18.9
2019-Dec-10 19:40 182 18.9
2019-Dec-10 19:35 182 1 18.9
2019-Dec-10 19:30 164 1 27.8
2019-Dec-10 19:25 152 1 27.8
2019-Dec-10 19:20 161 2 27.8
2019-Dec-10 19:15 165 3 27.8
2019-Dec-10 19:10 161 4 27.8
2019-Dec-10 19:05 138 3 27.8
2019-Dec-10 19:00 143 4 27.8
2019-Dec-10 18:55 167 4 28.3
2019-Dec-10 18:50 151 5 28.3
2019-Dec-10 18:45 173 5 28.3
2019-Dec-10 18:40 130 5 28.3
2019-Dec-10 18:35 157 4 28.3
2019-Dec-10 18:30 157 3 28.3
2019-Dec-10 18:25 153 2 28.3
2019-Dec-10 18:20 133 2 28.3
2019-Dec-10 18:15 118 3 28.3
2019-Dec-10 18:10 151 3 28.3
2019-Dec-10 18:05 150 3 28.3
2019-Dec-10 18:00 121 2 28.9
2019-Dec-10 17:55 132 0 28.9
2019-Dec-10 17:50 128 2 28.9
2019-Dec-10 17:45 122 2 28.3
2019-Dec-10 17:40 134 1 28.9
2019-Dec-10 17:35 165 1 28.3
2019-Dec-10 17:30 130 2 28.3
2019-Dec-10 17:25 131 1 28.3
2019-Dec-10 17:20 166 0 28.3
2019-Dec-10 17:15 149 0 27.8
2019-Dec-10 17:10 165 0 27.8
2019-Dec-10 17:05 183 0 27.8
2019-Dec-10 17:00 173 2 27.8
2019-Dec-10 16:55 172 4 27.8
2019-Dec-10 16:50 194 3 27.8
2019-Dec-10 16:45 159 0 27.8
2019-Dec-10 16:40 182 18.9
2019-Dec-10 16:35 182 18.9
2019-Dec-10 16:30 182 1 18.9
2019-Dec-10 16:25 153 2 27.2
2019-Dec-10 16:20 27.2
2019-Dec-10 16:15 153 18.9
2019-Dec-10 16:10 182 18.9
2019-Dec-10 16:06 182 18.9
2019-Dec-10 16:00 182 18.9
2019-Dec-10 15:55 182 18.9
2019-Dec-10 15:50 182 18.9
2019-Dec-10 15:45 182 18.9
2019-Dec-10 15:40 182 18.9
2019-Dec-10 15:35 182 18.9
2019-Dec-10 15:30 182 18.9
2019-Dec-10 15:25 182 18.9
2019-Dec-10 15:20 182 18.9
2019-Dec-10 15:15 182 18.9
2019-Dec-10 15:10 182 18.9
2019-Dec-10 15:05 182 18.9
2019-Dec-10 15:00 182 18.9
2019-Dec-10 14:55 182 18.9
2019-Dec-10 14:50 182 18.9
2019-Dec-10 14:45 182 18.9
2019-Dec-10 14:40 182 18.9
2019-Dec-10 14:35 182 18.9
2019-Dec-10 14:30 182 18.9
2019-Dec-10 14:25 182 18.9
2019-Dec-10 14:20 182 18.9
2019-Dec-10 14:15 182 18.9
2019-Dec-10 14:10 182 18.9
2019-Dec-10 14:05 182 18.9
2019-Dec-10 14:00 182 18.9
2019-Dec-10 13:55 182 18.9
2019-Dec-10 13:50 182 18.9
2019-Dec-10 13:45 182 18.9
2019-Dec-10 13:40 182 18.9
2019-Dec-10 13:35 182 18.9
2019-Dec-10 13:30 182 18.9
2019-Dec-10 13:25 182 18.9
2019-Dec-10 13:20 182 18.9
2019-Dec-10 13:15 182 18.9
2019-Dec-10 13:10 182 18.9
2019-Dec-10 13:05 182 18.9
2019-Dec-10 13:00 182 18.9
2019-Dec-10 12:55 182 18.9
2019-Dec-10 12:50 182 18.9
2019-Dec-10 12:45 192 25.0
2019-Dec-10 12:40 192 25.0
2019-Dec-10 12:35 192 25.0
2019-Dec-10 12:30 192 24.4
2019-Dec-10 12:25 192 24.4
2019-Dec-10 12:20 192 23.9
2019-Dec-10 12:15 192 23.3
2019-Dec-10 12:10 192 23.3
2019-Dec-10 12:05 192 22.8
2019-Dec-10 12:00 192 22.8
2019-Dec-10 11:55 192 22.8
2019-Dec-10 11:50 192 22.2
2019-Dec-10 11:45 192 22.2
2019-Dec-10 11:40 192 22.2
2019-Dec-10 11:35 192 21.7
2019-Dec-10 11:30 192 21.7
2019-Dec-10 11:25 192 21.7
2019-Dec-10 11:20 192 21.1
2019-Dec-10 11:15 192 21.1
2019-Dec-10 11:10 192 21.1
2019-Dec-10 11:05 192 21.1
2019-Dec-10 11:00 192 21.1
2019-Dec-10 10:55 192 21.1
2019-Dec-10 10:50 192 21.1
2019-Dec-10 10:45 192 21.1
2019-Dec-10 10:40 192 21.1
2019-Dec-10 10:35 192 21.1
2019-Dec-10 10:30 192 21.1
2019-Dec-10 10:25 192 21.1
2019-Dec-10 10:20 192 21.1
2019-Dec-10 10:15 192 21.1
2019-Dec-10 10:11 192 21.1
2019-Dec-10 10:05 192 21.1
2019-Dec-10 10:00 192 21.1
2019-Dec-10 09:55 192 21.1
2019-Dec-10 09:50 192 21.1
2019-Dec-10 09:45 192 21.1
2019-Dec-10 09:40 192 21.1
2019-Dec-10 09:35 192 21.1
2019-Dec-10 09:30 192 21.1
2019-Dec-10 09:25 192 21.7
2019-Dec-10 09:20 192 21.7
2019-Dec-10 09:15 192 21.1
2019-Dec-10 09:10 192 21.1
2019-Dec-10 09:05 192 21.1
2019-Dec-10 09:00 192 21.1
2019-Dec-10 08:55 192 21.1
2019-Dec-10 08:50 192 21.1
2019-Dec-10 08:45 192 21.7
2019-Dec-10 08:40 192 21.7
2019-Dec-10 08:35 192 21.7
2019-Dec-10 08:30 192 21.7
2019-Dec-10 08:25 192 21.7
2019-Dec-10 08:20 192 21.7
2019-Dec-10 08:15 192 21.7
2019-Dec-10 08:10 192 21.7
2019-Dec-10 08:05 192 21.7
2019-Dec-10 08:00 192 21.7
2019-Dec-10 07:55 192 21.7
2019-Dec-10 07:50 192 21.7
2019-Dec-10 07:45 192 21.7
2019-Dec-10 07:40 192 21.7
2019-Dec-10 07:35 192 21.7
2019-Dec-10 07:30 192 22.2
2019-Dec-10 07:25 192 22.2
2019-Dec-10 07:15 192 22.2
2019-Dec-10 07:05 192 22.2
2019-Dec-10 07:00 192 22.2
2019-Dec-10 06:55 192 22.2
2019-Dec-10 06:50 192 22.2
2019-Dec-10 06:45 192 22.2
2019-Dec-10 06:40 192 22.8
2019-Dec-10 06:35 192 22.8
2019-Dec-10 06:30 192 22.8
2019-Dec-10 06:25 192 22.8
2019-Dec-10 06:20 192 22.8
2019-Dec-10 06:15 192 22.8
2019-Dec-10 06:10 192 23.3
2019-Dec-10 06:05 192 23.3
2019-Dec-10 06:00 192 23.3
2019-Dec-10 05:50 182 18.9
2019-Dec-10 05:40 182 18.9
2019-Dec-10 05:35 182 18.9
2019-Dec-10 05:25 182 18.9
2019-Dec-10 05:20 182 18.9
2019-Dec-10 05:15 182 18.9
2019-Dec-10 05:10 182 18.9
2019-Dec-10 05:05 182 18.9
2019-Dec-10 05:00 182 18.9
2019-Dec-10 04:55 182 18.9
2019-Dec-10 04:45 182 18.9
2019-Dec-10 04:40 182 18.9
2019-Dec-10 04:35 182 18.9
2019-Dec-10 04:29 182 18.9
2019-Dec-10 04:24 182 18.9
2019-Dec-10 04:19 182 18.9
2019-Dec-10 04:15 182 18.9
2019-Dec-10 04:09 182 18.9
2019-Dec-10 04:04 182 18.9
2019-Dec-10 03:59 182 18.9
2019-Dec-10 03:54 182 18.9
2019-Dec-10 03:49 182 18.9
2019-Dec-10 03:45 182 19.4
2019-Dec-10 03:39 182 18.9
2019-Dec-10 03:34 182 18.9
2019-Dec-10 03:29 192 22.8
2019-Dec-10 03:24 192 22.8
2019-Dec-10 03:19 192 22.8
2019-Dec-10 03:14 192 22.8
2019-Dec-10 03:09 192 23.3
2019-Dec-10 03:05 192 23.3
2019-Dec-10 02:59 192 23.3
2019-Dec-10 02:54 192 23.3
2019-Dec-10 02:49 192 23.3
2019-Dec-10 02:44 192 23.3
2019-Dec-10 02:39 192 23.3
2019-Dec-10 02:34 192 23.3
2019-Dec-10 02:29 192 23.9
2019-Dec-10 02:24 192 23.9
2019-Dec-10 02:19 182 19.4
2019-Dec-10 02:15 182 19.4
2019-Dec-10 02:09 182 19.4
2019-Dec-10 02:04 182 19.4
2019-Dec-10 01:59 182 19.4
2019-Dec-10 01:54 182 19.4
2019-Dec-10 01:49 182 19.4
2019-Dec-10 01:44 182 19.4
2019-Dec-10 01:39 182 19.4
2019-Dec-10 01:34 182 19.4
2019-Dec-10 01:29 182 19.4
2019-Dec-10 01:24 182 19.4
2019-Dec-10 01:19 182 19.4
2019-Dec-10 01:14 182 19.4
2019-Dec-10 01:09 192 24.4
2019-Dec-10 01:04 192 24.4
2019-Dec-10 00:59 192 24.4
2019-Dec-10 00:54 192 24.4
2019-Dec-10 00:49 192 24.4
2019-Dec-10 00:44 192 24.4
2019-Dec-10 00:39 192 24.4
2019-Dec-10 00:34 192 0 24.4
2019-Dec-10 00:29 192 1 24.4
2019-Dec-10 00:24 192 0 23.9
2019-Dec-10 00:19 175 23.9
2019-Dec-10 00:14 175 23.9
2019-Dec-10 00:09 175 24.4
2019-Dec-10 00:04 175 23.9
2019-Dec-09 23:59 175 0 23.9
2019-Dec-09 23:54 175 0 23.9
2019-Dec-09 23:49 189 24.4
2019-Dec-09 23:44 189 24.4
2019-Dec-09 23:39 189 24.4
2019-Dec-09 23:34 189 24.4
2019-Dec-09 23:29 189 23.9
2019-Dec-09 23:24 189 23.9
2019-Dec-09 23:19 189 1 23.9
2019-Dec-09 23:14 189 3 23.9
2019-Dec-09 23:09 145 6 23.9
2019-Dec-09 23:04 120 4 23.9
2019-Dec-09 22:59 131 0 24.4
2019-Dec-09 22:54 136 24.4
2019-Dec-09 22:49 136 24.4
2019-Dec-09 22:44 136 0 23.9
2019-Dec-09 22:38 116 3 23.9
2019-Dec-09 22:34 121 6 23.9
2019-Dec-09 22:29 171 6 24.4
2019-Dec-09 22:24 203 3 24.4
2019-Dec-09 22:18 156 2 25.0
2019-Dec-09 22:14 156 3 25.0
2019-Dec-09 22:09 148 1 25.0
2019-Dec-09 22:04 140 25.6
2019-Dec-09 21:59 163 25.6
2019-Dec-09 21:54 163 25.6
2019-Dec-09 21:48 163 25.6
2019-Dec-09 21:44 163 25.6
2019-Dec-09 21:39 163 25.6
2019-Dec-09 21:33 163 25.6
2019-Dec-09 21:28 163 25.6
2019-Dec-09 21:23 162 25.6
2019-Dec-09 21:18 163 25.6
2019-Dec-09 21:14 162 25.6
2019-Dec-09 21:08 163 25.6
2019-Dec-09 21:03 182 19.4
2019-Dec-09 20:59 182 19.4
2019-Dec-09 20:53 182 19.4
2019-Dec-09 20:48 182 19.4
2019-Dec-09 20:43 182 19.4
2019-Dec-09 20:38 182 19.4
2019-Dec-09 20:33 182 19.4
2019-Dec-09 20:28 162 25.0
2019-Dec-09 20:23 163 25.0
2019-Dec-09 20:18 162 25.0
2019-Dec-09 20:13 163 25.0
2019-Dec-09 20:08 162 24.4
2019-Dec-09 19:58 162 0 23.9
2019-Dec-09 19:53 162 0 23.9
2019-Dec-09 19:48 162 0 23.9
2019-Dec-09 19:43 162 23.9
2019-Dec-09 19:38 163 1 gusting 10 23.9
2019-Dec-09 19:33 163 4 gusting 10 23.9
2019-Dec-09 19:28 174 0 gusting 10 25.0
2019-Dec-09 19:23 169 6 gusting 10 25.6
2019-Dec-09 19:18 207 4 gusting 7 26.1
2019-Dec-09 19:13 129 26.1
2019-Dec-09 19:08 124 3 gusting 6 27.2
2019-Dec-09 19:03 124 4 gusting 7 27.2
2019-Dec-09 18:58 123 5 gusting 7 27.8
2019-Dec-09 18:53 163 3 gusting 7 27.8
2019-Dec-09 18:48 157 3 gusting 7 27.8
2019-Dec-09 18:43 167 1 gusting 6 27.8
2019-Dec-09 18:38 168 27.8
2019-Dec-09 18:33 151 27.2
2019-Dec-09 18:28 150 27.2
2019-Dec-09 18:23 155 26.7
2019-Dec-09 18:18 162 0 gusting 6 26.7
2019-Dec-09 18:13 160 3 gusting 6 26.1
2019-Dec-09 18:08 189 26.1
2019-Dec-09 18:03 196 4 gusting 11 26.1
2019-Dec-09 17:58 205 7 gusting 14 26.7
2019-Dec-09 17:53 173 7 gusting 14 26.7
2019-Dec-09 17:48 155 6 gusting 11 27.2
2019-Dec-09 17:43 182 18.9
2019-Dec-09 17:35 182 18.9
2019-Dec-09 17:28 182 18.9
2019-Dec-09 17:23 182 18.9
2019-Dec-09 17:18 182 18.9
2019-Dec-09 17:13 182 18.9
2019-Dec-09 17:08 182 18.9
2019-Dec-09 17:03 182 18.9
2019-Dec-09 16:58 182 18.9
2019-Dec-09 16:53 182 18.9
2019-Dec-09 16:48 182 18.9
2019-Dec-09 16:43 182 18.9
2019-Dec-09 16:38 182 18.9
2019-Dec-09 16:33 182 18.9
2019-Dec-09 16:28 182 18.9
2019-Dec-09 16:23 182 18.9
2019-Dec-09 16:18 182 18.9
2019-Dec-09 16:13 182 18.9
2019-Dec-09 16:08 182 18.9
2019-Dec-09 16:03 182 18.9
2019-Dec-09 15:58 182 18.9
2019-Dec-09 15:53 182 18.9
2019-Dec-09 15:48 182 18.9
2019-Dec-09 15:43 182 18.9
2019-Dec-09 15:38 182 18.9
2019-Dec-09 15:33 182 18.9
2019-Dec-09 15:28 182 18.9
2019-Dec-09 15:23 182 18.9
2019-Dec-09 15:18 182 18.9
2019-Dec-09 15:13 182 18.9
2019-Dec-09 15:08 182 18.9
2019-Dec-09 15:03 182 18.9
2019-Dec-09 14:58 182 18.9
2019-Dec-09 14:53 182 18.9
2019-Dec-09 14:48 182 18.9
2019-Dec-09 14:43 182 18.9
2019-Dec-09 14:38 182 18.9
2019-Dec-09 14:33 182 18.9
2019-Dec-09 14:28 182 18.9
2019-Dec-09 14:23 182 18.9
2019-Dec-09 14:18 182 18.9
2019-Dec-09 14:13 182 18.9
2019-Dec-09 14:08 182 18.9
2019-Dec-09 14:03 182 18.9
2019-Dec-09 13:58 182 18.9
2019-Dec-09 13:53 182 18.9
2019-Dec-09 13:48 182 18.9
2019-Dec-09 13:43 182 18.9
2019-Dec-09 13:38 182 18.9
2019-Dec-09 13:33 182 18.9
2019-Dec-09 13:28 182 4 gusting 6 26.7
2019-Dec-09 13:23 161 6 gusting 6 26.7
2019-Dec-09 13:18 157 26.1
2019-Dec-09 13:13 145 0 gusting 7 26.1
2019-Dec-09 13:08 146 1 gusting 7 25.6
2019-Dec-09 13:03 139 3 gusting 6 25.0
2019-Dec-09 12:58 136 4 gusting 6 25.0
2019-Dec-09 12:53 133 24.4
2019-Dec-09 12:48 133 2 gusting 4 23.9
2019-Dec-09 12:43 133 23.9
2019-Dec-09 12:38 133 23.3
2019-Dec-09 12:33 133 23.3
2019-Dec-09 12:28 133 23.3
2019-Dec-09 12:23 133 22.8
2019-Dec-09 12:18 133 22.8
2019-Dec-09 12:13 133 22.8
2019-Dec-09 12:08 133 22.2
2019-Dec-09 12:03 133 22.2
2019-Dec-09 11:58 133 22.2
2019-Dec-09 11:53 133 22.2
2019-Dec-09 11:48 133 22.2
2019-Dec-09 11:43 133 22.2
2019-Dec-09 11:38 133 22.2
2019-Dec-09 11:33 133 22.2
2019-Dec-09 11:28 133 22.2
2019-Dec-09 11:23 133 22.2
2019-Dec-09 11:18 133 22.2
2019-Dec-09 11:13 133 22.2
2019-Dec-09 11:08 133 22.2
2019-Dec-09 11:03 133 22.2
2019-Dec-09 10:58 133 22.2
2019-Dec-09 10:53 133 22.2
2019-Dec-09 10:48 133 22.2
2019-Dec-09 10:43 133 22.2
2019-Dec-09 10:38 133 22.2
2019-Dec-09 10:33 133 22.2
2019-Dec-09 10:28 133 22.2
2019-Dec-09 10:23 133 22.2
2019-Dec-09 10:18 133 22.2
2019-Dec-09 10:13 133 22.2
2019-Dec-09 10:08 133 22.2
2019-Dec-09 10:03 133 22.2
2019-Dec-09 09:58 133 22.2
2019-Dec-09 09:53 133 22.2
2019-Dec-09 09:48 133 22.2
2019-Dec-09 09:43 133 22.2
2019-Dec-09 09:38 133 22.2
2019-Dec-09 09:33 133 22.2
2019-Dec-09 09:28 133 22.2
2019-Dec-09 09:23 133 22.2
2019-Dec-09 09:18 133 22.2
2019-Dec-09 09:13 133 22.2
2019-Dec-09 09:08 133 22.2
2019-Dec-09 09:03 133 22.8
2019-Dec-09 08:58 133 22.8
2019-Dec-09 08:53 133 22.8
2019-Dec-09 08:48 133 22.8
2019-Dec-09 08:43 133 22.8
2019-Dec-09 08:38 133 22.8
2019-Dec-09 08:33 133 22.8
2019-Dec-09 08:28 133 22.8
2019-Dec-09 08:23 133 22.8
2019-Dec-09 08:18 133 22.8
2019-Dec-09 08:13 133 22.8
2019-Dec-09 08:08 133 23.3
2019-Dec-09 08:03 133 23.3
2019-Dec-09 07:58 133 23.3
2019-Dec-09 07:53 133 23.3
2019-Dec-09 07:48 133 23.3
2019-Dec-09 07:43 133 23.3
2019-Dec-09 07:38 133 23.3
2019-Dec-09 07:33 133 23.3
2019-Dec-09 07:28 133 23.3
2019-Dec-09 07:23 133 23.3
2019-Dec-09 07:18 182 19.4
2019-Dec-09 07:13 182 19.4
2019-Dec-09 07:08 182 19.4
2019-Dec-09 07:03 182 19.4
2019-Dec-09 06:58 182 19.4
2019-Dec-09 06:53 182 19.4
2019-Dec-09 06:48 182 19.4
2019-Dec-09 06:43 182 19.4
2019-Dec-09 06:38 182 19.4
2019-Dec-09 06:33 182 19.4
2019-Dec-09 06:28 182 19.4
2019-Dec-09 06:23 182 19.4
2019-Dec-09 06:18 182 19.4
2019-Dec-09 06:13 182 19.4
2019-Dec-09 06:08 182 19.4
2019-Dec-09 06:03 182 19.4
2019-Dec-09 05:58 182 19.4
2019-Dec-09 05:53 182 19.4
2019-Dec-09 05:48 182 19.4
2019-Dec-09 05:43 182 19.4
2019-Dec-09 05:38 182 19.4
2019-Dec-09 05:33 182 19.4
2019-Dec-09 05:28 182 19.4
2019-Dec-09 05:23 182 19.4
2019-Dec-09 05:18 182 19.4
2019-Dec-09 05:13 182 19.4
2019-Dec-09 05:08 182 19.4
2019-Dec-09 05:03 182 19.4
2019-Dec-09 04:58 182 19.4
2019-Dec-09 04:53 182 19.4
2019-Dec-09 04:48 182 19.4
2019-Dec-09 04:43 182 19.4
2019-Dec-09 04:38 182 19.4
2019-Dec-09 04:33 182 19.4
2019-Dec-09 04:28 182 19.4
2019-Dec-09 04:23 182 19.4
2019-Dec-09 04:18 182 19.4
2019-Dec-09 04:13 130 23.3
2019-Dec-09 04:08 130 23.3
2019-Dec-09 04:03 130 23.3
2019-Dec-09 03:58 130 23.3
2019-Dec-09 03:53 130 23.3
2019-Dec-09 03:48 130 23.3
2019-Dec-09 03:43 130 23.3
2019-Dec-09 03:38 130 23.3
2019-Dec-09 03:33 130 23.3
2019-Dec-09 03:28 130 23.3
2019-Dec-09 03:23 130 23.3
2019-Dec-09 03:18 130 23.3
2019-Dec-09 03:13 130 23.3
2019-Dec-09 03:08 130 23.3
2019-Dec-09 03:03 130 23.3
2019-Dec-09 02:58 130 23.3
2019-Dec-09 02:53 130 23.3
2019-Dec-09 02:48 130 23.3
2019-Dec-09 02:43 130 23.3
2019-Dec-09 02:38 130 23.3
2019-Dec-09 02:33 130 23.3
2019-Dec-09 02:28 130 23.3
2019-Dec-09 02:23 130 23.3
2019-Dec-09 02:18 130 23.3
2019-Dec-09 02:13 130 23.3
2019-Dec-09 02:08 130 23.3
2019-Dec-09 02:03 130 23.3